sensor_id;sensor_type;location;lat;lon;timestamp;pressure;altitude;pressure_sealevel;temperature;humidity
70133;BME280;57495;49.922;7.966;2023-02-20T00:00:01;101104.19;;;7.24;94.03
70133;BME280;57495;49.922;7.966;2023-02-20T00:02:04;101098.38;;;7.32;93.99
70133;BME280;57495;49.922;7.966;2023-02-20T00:04:06;101088.31;;;7.23;94.43
70133;BME280;57495;49.922;7.966;2023-02-20T00:06:07;101085.56;;;7.24;94.59
70133;BME280;57495;49.922;7.966;2023-02-20T00:08:09;101098.19;;;7.21;94.80
70133;BME280;57495;49.922;7.966;2023-02-20T00:10:10;101103.34;;;7.24;94.23
70133;BME280;57495;49.922;7.966;2023-02-20T00:12:12;101100.56;;;7.25;94.37
70133;BME280;57495;49.922;7.966;2023-02-20T00:14:13;101084.72;;;7.24;94.58
70133;BME280;57495;49.922;7.966;2023-02-20T00:16:15;101076.25;;;7.17;94.80
70133;BME280;57495;49.922;7.966;2023-02-20T00:18:17;101080.03;;;7.27;93.73
70133;BME280;57495;49.922;7.966;2023-02-20T00:20:21;101072.34;;;7.23;94.02
70133;BME280;57495;49.922;7.966;2023-02-20T00:22:24;101077.38;;;7.27;92.91
70133;BME280;57495;49.922;7.966;2023-02-20T00:24:25;101068.53;;;7.27;92.98
70133;BME280;57495;49.922;7.966;2023-02-20T00:26:27;101069.13;;;7.18;93.05
70133;BME280;57495;49.922;7.966;2023-02-20T00:28:28;101063.78;;;7.18;92.60
70133;BME280;57495;49.922;7.966;2023-02-20T00:30:33;101067.78;;;7.10;92.60
70133;BME280;57495;49.922;7.966;2023-02-20T00:32:34;101068.00;;;7.07;92.75
70133;BME280;57495;49.922;7.966;2023-02-20T00:34:37;101071.00;;;6.87;93.56
70133;BME280;57495;49.922;7.966;2023-02-20T00:36:39;101062.44;;;6.82;93.48
70133;BME280;57495;49.922;7.966;2023-02-20T00:38:41;101060.94;;;6.77;93.58
70133;BME280;57495;49.922;7.966;2023-02-20T00:40:42;101066.59;;;6.71;93.54
70133;BME280;57495;49.922;7.966;2023-02-20T00:42:44;101063.94;;;6.71;93.29
70133;BME280;57495;49.922;7.966;2023-02-20T00:44:45;101066.59;;;6.57;93.86
70133;BME280;57495;49.922;7.966;2023-02-20T00:46:47;101060.06;;;6.63;93.40
70133;BME280;57495;49.922;7.966;2023-02-20T00:48:48;101060.47;;;6.55;93.67
70133;BME280;57495;49.922;7.966;2023-02-20T00:50:52;101056.03;;;6.55;93.24
70133;BME280;57495;49.922;7.966;2023-02-20T00:52:53;101060.69;;;6.52;92.75
70133;BME280;57495;49.922;7.966;2023-02-20T00:54:55;101062.91;;;6.44;93.28
70133;BME280;57495;49.922;7.966;2023-02-20T00:56:56;101057.97;;;6.37;93.47
70133;BME280;57495;49.922;7.966;2023-02-20T00:58:58;101061.84;;;6.32;93.39
70133;BME280;57495;49.922;7.966;2023-02-20T01:00:59;101073.53;;;6.29;93.48
70133;BME280;57495;49.922;7.966;2023-02-20T01:03:01;101072.63;;;6.29;93.42
70133;BME280;57495;49.922;7.966;2023-02-20T01:05:02;101062.22;;;6.26;93.33
70133;BME280;57495;49.922;7.966;2023-02-20T01:07:05;101061.34;;;6.25;92.99
70133;BME280;57495;49.922;7.966;2023-02-20T01:09:07;101059.81;;;6.21;92.93
70133;BME280;57495;49.922;7.966;2023-02-20T01:11:08;101062.31;;;6.24;92.60
70133;BME280;57495;49.922;7.966;2023-02-20T01:13:09;101063.44;;;6.20;92.55
70133;BME280;57495;49.922;7.966;2023-02-20T01:15:12;101054.13;;;6.27;92.12
70133;BME280;57495;49.922;7.966;2023-02-20T01:17:14;101055.63;;;6.17;92.13
70133;BME280;57495;49.922;7.966;2023-02-20T01:19:16;101055.03;;;6.12;92.39
70133;BME280;57495;49.922;7.966;2023-02-20T01:21:18;101063.16;;;6.09;92.85
70133;BME280;57495;49.922;7.966;2023-02-20T01:23:21;101056.63;;;6.14;92.44
70133;BME280;57495;49.922;7.966;2023-02-20T01:25:23;101054.28;;;6.10;92.03
70133;BME280;57495;49.922;7.966;2023-02-20T01:27:24;101056.06;;;6.09;91.95
70133;BME280;57495;49.922;7.966;2023-02-20T01:29:26;101063.16;;;6.09;92.23
70133;BME280;57495;49.922;7.966;2023-02-20T01:31:27;101068.06;;;6.16;91.53
70133;BME280;57495;49.922;7.966;2023-02-20T01:33:29;101062.59;;;6.04;91.88
70133;BME280;57495;49.922;7.966;2023-02-20T01:35:30;101059.75;;;6.07;91.59
70133;BME280;57495;49.922;7.966;2023-02-20T01:37:32;101061.84;;;6.02;91.96
70133;BME280;57495;49.922;7.966;2023-02-20T01:39:35;101058.66;;;6.11;91.34
70133;BME280;57495;49.922;7.966;2023-02-20T01:41:36;101058.19;;;6.18;91.08
70133;BME280;57495;49.922;7.966;2023-02-20T01:43:38;101052.53;;;6.09;91.14
70133;BME280;57495;49.922;7.966;2023-02-20T01:45:40;101046.56;;;6.05;91.25
70133;BME280;57495;49.922;7.966;2023-02-20T01:47:41;101042.56;;;5.98;91.38
70133;BME280;57495;49.922;7.966;2023-02-20T01:49:45;101043.13;;;6.03;91.52
70133;BME280;57495;49.922;7.966;2023-02-20T01:51:51;101040.59;;;6.02;91.10
70133;BME280;57495;49.922;7.966;2023-02-20T01:53:54;101038.69;;;6.04;91.11
70133;BME280;57495;49.922;7.966;2023-02-20T01:55:59;101042.81;;;6.09;91.14
70133;BME280;57495;49.922;7.966;2023-02-20T01:58:07;101033.19;;;6.07;90.22
70133;BME280;57495;49.922;7.966;2023-02-20T02:00:13;101030.53;;;6.07;90.55
70133;BME280;57495;49.922;7.966;2023-02-20T02:02:16;101021.72;;;5.90;91.28
70133;BME280;57495;49.922;7.966;2023-02-20T02:04:18;101027.66;;;5.95;91.67
70133;BME280;57495;49.922;7.966;2023-02-20T02:06:20;101023.28;;;5.94;92.04
70133;BME280;57495;49.922;7.966;2023-02-20T02:08:22;101023.28;;;5.94;91.66
70133;BME280;57495;49.922;7.966;2023-02-20T02:10:27;101021.22;;;5.84;92.32
70133;BME280;57495;49.922;7.966;2023-02-20T02:12:31;101024.13;;;5.79;92.95
70133;BME280;57495;49.922;7.966;2023-02-20T02:14:33;101008.03;;;5.66;93.50
70133;BME280;57495;49.922;7.966;2023-02-20T02:16:40;101003.09;;;5.76;93.53
70133;BME280;57495;49.922;7.966;2023-02-20T02:18:53;100998.03;;;5.71;94.12
70133;BME280;57495;49.922;7.966;2023-02-20T02:21:16;101011.13;;;5.58;94.60
70133;BME280;57495;49.922;7.966;2023-02-20T02:23:44;101009.50;;;5.56;95.58
70133;BME280;57495;49.922;7.966;2023-02-20T02:25:54;101013.16;;;5.53;95.66
70133;BME280;57495;49.922;7.966;2023-02-20T02:28:16;101014.75;;;5.57;95.61
70133;BME280;57495;49.922;7.966;2023-02-20T02:31:02;101016.88;;;5.67;95.07
70133;BME280;57495;49.922;7.966;2023-02-20T02:33:36;101010.59;;;5.68;94.87
70133;BME280;57495;49.922;7.966;2023-02-20T02:36:00;101018.66;;;5.66;94.76
70133;BME280;57495;49.922;7.966;2023-02-20T02:38:16;101015.75;;;5.71;94.52
70133;BME280;57495;49.922;7.966;2023-02-20T02:40:26;101013.88;;;5.73;94.81
70133;BME280;57495;49.922;7.966;2023-02-20T02:42:38;101017.44;;;5.72;94.23
70133;BME280;57495;49.922;7.966;2023-02-20T02:44:43;101013.19;;;5.69;95.01
70133;BME280;57495;49.922;7.966;2023-02-20T02:46:53;101014.38;;;5.79;94.33
70133;BME280;57495;49.922;7.966;2023-02-20T02:49:00;100995.22;;;5.74;94.34
70133;BME280;57495;49.922;7.966;2023-02-20T02:51:11;101002.00;;;5.48;95.68
70133;BME280;57495;49.922;7.966;2023-02-20T02:53:14;101010.25;;;5.42;96.13
70133;BME280;57495;49.922;7.966;2023-02-20T02:55:19;101006.69;;;5.43;96.52
70133;BME280;57495;49.922;7.966;2023-02-20T02:57:23;101002.84;;;5.49;95.99
70133;BME280;57495;49.922;7.966;2023-02-20T02:59:28;100999.50;;;5.45;96.31
70133;BME280;57495;49.922;7.966;2023-02-20T03:01:33;100993.59;;;5.40;96.85
70133;BME280;57495;49.922;7.966;2023-02-20T03:03:39;100987.50;;;5.38;98.32
70133;BME280;57495;49.922;7.966;2023-02-20T03:05:48;101000.28;;;5.31;98.79
70133;BME280;57495;49.922;7.966;2023-02-20T03:07:54;100996.91;;;5.43;99.27
70133;BME280;57495;49.922;7.966;2023-02-20T03:10:02;101002.31;;;5.42;99.11
70133;BME280;57495;49.922;7.966;2023-02-20T03:12:06;100996.25;;;5.40;99.36
70133;BME280;57495;49.922;7.966;2023-02-20T03:14:11;100999.16;;;5.35;99.97
70133;BME280;57495;49.922;7.966;2023-02-20T03:16:39;100999.84;;;5.39;100.00
70133;BME280;57495;49.922;7.966;2023-02-20T03:18:44;101007.38;;;5.47;100.00
70133;BME280;57495;49.922;7.966;2023-02-20T03:20:50;101001.72;;;5.37;100.00
70133;BME280;57495;49.922;7.966;2023-02-20T03:22:55;101002.91;;;5.47;100.00
70133;BME280;57495;49.922;7.966;2023-02-20T03:25:00;100993.16;;;5.48;100.00
70133;BME280;57495;49.922;7.966;2023-02-20T03:27:04;101004.63;;;5.48;100.00
70133;BME280;57495;49.922;7.966;2023-02-20T03:29:09;100989.56;;;5.33;100.00
70133;BME280;57495;49.922;7.966;2023-02-20T03:31:16;100998.28;;;5.35;100.00
70133;BME280;57495;49.922;7.966;2023-02-20T03:33:23;100991.44;;;5.31;100.00
70133;BME280;57495;49.922;7.966;2023-02-20T03:35:43;100986.34;;;5.28;100.00
70133;BME280;57495;49.922;7.966;2023-02-20T03:38:06;100989.91;;;5.27;100.00
70133;BME280;57495;49.922;7.966;2023-02-20T03:40:28;100990.06;;;5.23;100.00
70133;BME280;57495;49.922;7.966;2023-02-20T03:42:49;100991.03;;;5.22;100.00
70133;BME280;57495;49.922;7.966;2023-02-20T03:45:11;100994.44;;;5.25;100.00
70133;BME280;57495;49.922;7.966;2023-02-20T03:47:17;100988.44;;;5.21;100.00
70133;BME280;57495;49.922;7.966;2023-02-20T03:49:24;100993.84;;;5.19;100.00
70133;BME280;57495;49.922;7.966;2023-02-20T03:51:27;100994.19;;;5.13;100.00
70133;BME280;57495;49.922;7.966;2023-02-20T03:53:30;100994.84;;;5.01;100.00
70133;BME280;57495;49.922;7.966;2023-02-20T03:55:32;100989.53;;;5.01;100.00
70133;BME280;57495;49.922;7.966;2023-02-20T03:57:38;100987.50;;;5.06;100.00
70133;BME280;57495;49.922;7.966;2023-02-20T03:59:43;100986.09;;;4.99;100.00
70133;BME280;57495;49.922;7.966;2023-02-20T04:01:51;100983.97;;;4.90;100.00
70133;BME280;57495;49.922;7.966;2023-02-20T04:03:55;100989.78;;;4.96;100.00
70133;BME280;57495;49.922;7.966;2023-02-20T04:05:58;100984.56;;;4.95;100.00
70133;BME280;57495;49.922;7.966;2023-02-20T04:08:05;100975.66;;;4.96;100.00
70133;BME280;57495;49.922;7.966;2023-02-20T04:10:14;100981.66;;;4.83;100.00
70133;BME280;57495;49.922;7.966;2023-02-20T04:12:21;100983.69;;;4.78;100.00
70133;BME280;57495;49.922;7.966;2023-02-20T04:14:24;100971.84;;;4.68;100.00
70133;BME280;57495;49.922;7.966;2023-02-20T04:16:28;100971.75;;;4.70;100.00
70133;BME280;57495;49.922;7.966;2023-02-20T04:18:31;100966.88;;;4.62;100.00
70133;BME280;57495;49.922;7.966;2023-02-20T04:20:32;100964.84;;;4.67;100.00
70133;BME280;57495;49.922;7.966;2023-02-20T04:22:37;100961.94;;;4.72;100.00
70133;BME280;57495;49.922;7.966;2023-02-20T04:24:42;100968.41;;;4.66;100.00
70133;BME280;57495;49.922;7.966;2023-02-20T04:26:46;100970.66;;;4.74;100.00
70133;BME280;57495;49.922;7.966;2023-02-20T04:28:48;100974.25;;;4.73;100.00
70133;BME280;57495;49.922;7.966;2023-02-20T04:30:50;100977.13;;;4.68;100.00
70133;BME280;57495;49.922;7.966;2023-02-20T04:32:51;100981.94;;;4.61;100.00
70133;BME280;57495;49.922;7.966;2023-02-20T04:34:53;100976.78;;;4.58;100.00
70133;BME280;57495;49.922;7.966;2023-02-20T04:37:04;100969.44;;;4.63;100.00
70133;BME280;57495;49.922;7.966;2023-02-20T04:39:07;100961.84;;;4.57;100.00
70133;BME280;57495;49.922;7.966;2023-02-20T04:41:08;100967.03;;;4.59;100.00
70133;BME280;57495;49.922;7.966;2023-02-20T04:43:11;100970.63;;;4.58;100.00
70133;BME280;57495;49.922;7.966;2023-02-20T04:45:12;100973.91;;;4.63;100.00
70133;BME280;57495;49.922;7.966;2023-02-20T04:47:16;100977.47;;;4.62;100.00
70133;BME280;57495;49.922;7.966;2023-02-20T04:49:18;100984.09;;;4.53;100.00
70133;BME280;57495;49.922;7.966;2023-02-20T04:51:19;100988.69;;;4.50;100.00
70133;BME280;57495;49.922;7.966;2023-02-20T04:53:20;100981.63;;;4.33;100.00
70133;BME280;57495;49.922;7.966;2023-02-20T04:55:22;100976.88;;;4.39;100.00
70133;BME280;57495;49.922;7.966;2023-02-20T04:57:24;100976.75;;;4.42;100.00
70133;BME280;57495;49.922;7.966;2023-02-20T04:59:26;100975.63;;;4.47;100.00
70133;BME280;57495;49.922;7.966;2023-02-20T05:01:28;100977.63;;;4.59;100.00
70133;BME280;57495;49.922;7.966;2023-02-20T05:03:29;100977.31;;;4.65;100.00
70133;BME280;57495;49.922;7.966;2023-02-20T05:05:31;100970.75;;;4.72;100.00
70133;BME280;57495;49.922;7.966;2023-02-20T05:07:32;100975.59;;;4.64;100.00
70133;BME280;57495;49.922;7.966;2023-02-20T05:09:33;100983.94;;;4.56;100.00
70133;BME280;57495;49.922;7.966;2023-02-20T05:11:35;100985.75;;;4.56;100.00
70133;BME280;57495;49.922;7.966;2023-02-20T05:13:37;100982.34;;;4.54;100.00
70133;BME280;57495;49.922;7.966;2023-02-20T05:15:40;100981.38;;;4.55;100.00
70133;BME280;57495;49.922;7.966;2023-02-20T05:17:41;100982.81;;;4.44;100.00
70133;BME280;57495;49.922;7.966;2023-02-20T05:19:42;100974.88;;;4.44;100.00
70133;BME280;57495;49.922;7.966;2023-02-20T05:21:44;100985.84;;;4.37;100.00
70133;BME280;57495;49.922;7.966;2023-02-20T05:24:05;100995.13;;;4.28;100.00
70133;BME280;57495;49.922;7.966;2023-02-20T05:26:07;101003.03;;;4.45;100.00
70133;BME280;57495;49.922;7.966;2023-02-20T05:28:09;100995.91;;;4.30;100.00
70133;BME280;57495;49.922;7.966;2023-02-20T05:30:11;100995.50;;;4.38;100.00
70133;BME280;57495;49.922;7.966;2023-02-20T05:32:15;100996.91;;;4.28;100.00
70133;BME280;57495;49.922;7.966;2023-02-20T05:34:17;101002.28;;;4.26;100.00
70133;BME280;57495;49.922;7.966;2023-02-20T05:36:20;100993.72;;;4.21;100.00
70133;BME280;57495;49.922;7.966;2023-02-20T05:38:21;100995.72;;;4.16;100.00
70133;BME280;57495;49.922;7.966;2023-02-20T05:40:23;100993.22;;;4.13;100.00
70133;BME280;57495;49.922;7.966;2023-02-20T05:42:24;100998.97;;;4.03;100.00
70133;BME280;57495;49.922;7.966;2023-02-20T05:44:26;101003.09;;;3.92;100.00
70133;BME280;57495;49.922;7.966;2023-02-20T05:46:27;100995.09;;;3.93;100.00
70133;BME280;57495;49.922;7.966;2023-02-20T05:48:30;100997.34;;;4.01;100.00
70133;BME280;57495;49.922;7.966;2023-02-20T05:50:31;100993.41;;;4.10;100.00
70133;BME280;57495;49.922;7.966;2023-02-20T05:52:33;101000.25;;;3.96;100.00
70133;BME280;57495;49.922;7.966;2023-02-20T05:54:34;100989.81;;;4.28;100.00
70133;BME280;57495;49.922;7.966;2023-02-20T05:56:40;100993.41;;;4.27;100.00
70133;BME280;57495;49.922;7.966;2023-02-20T05:58:42;100990.44;;;4.16;100.00
70133;BME280;57495;49.922;7.966;2023-02-20T06:00:44;100986.78;;;4.36;100.00
70133;BME280;57495;49.922;7.966;2023-02-20T06:02:45;100988.28;;;4.24;100.00
70133;BME280;57495;49.922;7.966;2023-02-20T06:04:48;100994.28;;;4.28;100.00
70133;BME280;57495;49.922;7.966;2023-02-20T06:06:49;100995.50;;;4.38;100.00
70133;BME280;57495;49.922;7.966;2023-02-20T06:08:51;100998.41;;;4.33;100.00
70133;BME280;57495;49.922;7.966;2023-02-20T06:10:52;100987.81;;;4.33;100.00
70133;BME280;57495;49.922;7.966;2023-02-20T06:12:55;100983.56;;;4.29;100.00
70133;BME280;57495;49.922;7.966;2023-02-20T06:14:56;100987.94;;;4.30;100.00
70133;BME280;57495;49.922;7.966;2023-02-20T06:16:57;100986.84;;;4.34;100.00
70133;BME280;57495;49.922;7.966;2023-02-20T06:19:00;100978.28;;;4.29;100.00
70133;BME280;57495;49.922;7.966;2023-02-20T06:21:06;100983.06;;;4.22;100.00
70133;BME280;57495;49.922;7.966;2023-02-20T06:23:07;100976.72;;;4.25;100.00
70133;BME280;57495;49.922;7.966;2023-02-20T06:25:09;100976.59;;;4.28;100.00
70133;BME280;57495;49.922;7.966;2023-02-20T06:27:10;100973.09;;;4.28;100.00
70133;BME280;57495;49.922;7.966;2023-02-20T06:29:13;100973.94;;;4.28;100.00
70133;BME280;57495;49.922;7.966;2023-02-20T06:31:20;100968.66;;;4.28;100.00
70133;BME280;57495;49.922;7.966;2023-02-20T06:33:22;100967.88;;;4.26;100.00
70133;BME280;57495;49.922;7.966;2023-02-20T06:35:23;100976.41;;;4.31;100.00
70133;BME280;57495;49.922;7.966;2023-02-20T06:37:26;100976.72;;;4.25;100.00
70133;BME280;57495;49.922;7.966;2023-02-20T06:39:28;100982.97;;;4.24;100.00
70133;BME280;57495;49.922;7.966;2023-02-20T06:41:30;100973.94;;;4.28;100.00
70133;BME280;57495;49.922;7.966;2023-02-20T06:43:31;100971.13;;;4.31;100.00
70133;BME280;57495;49.922;7.966;2023-02-20T06:45:32;100975.03;;;4.24;100.00
70133;BME280;57495;49.922;7.966;2023-02-20T06:47:34;100970.81;;;4.20;100.00
70133;BME280;57495;49.922;7.966;2023-02-20T06:49:35;100975.97;;;4.23;100.00
70133;BME280;57495;49.922;7.966;2023-02-20T06:51:37;100971.28;;;4.11;100.00
70133;BME280;57495;49.922;7.966;2023-02-20T06:53:40;100974.09;;;4.25;100.00
70133;BME280;57495;49.922;7.966;2023-02-20T06:55:42;100972.06;;;4.30;100.00
70133;BME280;57495;49.922;7.966;2023-02-20T06:57:43;100969.16;;;4.35;100.00
70133;BME280;57495;49.922;7.966;2023-02-20T06:59:45;100973.94;;;4.28;100.00
70133;BME280;57495;49.922;7.966;2023-02-20T07:01:48;100974.47;;;4.35;100.00
70133;BME280;57495;49.922;7.966;2023-02-20T07:03:50;100977.09;;;4.35;100.00
70133;BME280;57495;49.922;7.966;2023-02-20T07:05:52;100982.19;;;4.39;100.00
70133;BME280;57495;49.922;7.966;2023-02-20T07:07:54;100983.72;;;4.43;100.00
70133;BME280;57495;49.922;7.966;2023-02-20T07:09:56;100989.81;;;4.45;100.00
70133;BME280;57495;49.922;7.966;2023-02-20T07:12:00;100989.66;;;4.49;100.00
70133;BME280;57495;49.922;7.966;2023-02-20T07:14:02;100985.97;;;4.51;100.00
70133;BME280;57495;49.922;7.966;2023-02-20T07:16:03;100977.81;;;4.56;100.00
70133;BME280;57495;49.922;7.966;2023-02-20T07:18:05;100976.56;;;4.63;100.00
70133;BME280;57495;49.922;7.966;2023-02-20T07:20:07;100978.09;;;4.67;100.00
70133;BME280;57495;49.922;7.966;2023-02-20T07:22:09;100977.00;;;4.71;100.00
70133;BME280;57495;49.922;7.966;2023-02-20T07:24:10;100972.53;;;4.72;100.00
70133;BME280;57495;49.922;7.966;2023-02-20T07:26:21;100972.94;;;4.81;100.00
70133;BME280;57495;49.922;7.966;2023-02-20T07:28:23;100967.72;;;4.96;100.00
70133;BME280;57495;49.922;7.966;2023-02-20T07:30:25;100966.94;;;4.94;100.00
70133;BME280;57495;49.922;7.966;2023-02-20T07:32:26;100972.44;;;5.07;100.00
70133;BME280;57495;49.922;7.966;2023-02-20T07:34:28;100970.25;;;5.15;100.00
70133;BME280;57495;49.922;7.966;2023-02-20T07:36:29;100971.34;;;5.27;100.00
70133;BME280;57495;49.922;7.966;2023-02-20T07:38:30;100967.34;;;5.35;100.00
70133;BME280;57495;49.922;7.966;2023-02-20T07:40:32;100963.22;;;5.46;100.00
70133;BME280;57495;49.922;7.966;2023-02-20T07:42:35;100958.44;;;5.52;100.00
70133;BME280;57495;49.922;7.966;2023-02-20T07:44:36;100955.66;;;5.70;100.00
70133;BME280;57495;49.922;7.966;2023-02-20T07:46:38;100951.69;;;5.77;100.00
70133;BME280;57495;49.922;7.966;2023-02-20T07:48:39;100943.50;;;5.81;100.00
70133;BME280;57495;49.922;7.966;2023-02-20T07:50:40;100947.38;;;5.90;100.00
70133;BME280;57495;49.922;7.966;2023-02-20T07:52:42;100945.34;;;5.95;100.00
70133;BME280;57495;49.922;7.966;2023-02-20T07:54:44;100942.91;;;6.07;100.00
70133;BME280;57495;49.922;7.966;2023-02-20T07:56:46;100937.66;;;6.21;100.00
70133;BME280;57495;49.922;7.966;2023-02-20T07:58:49;100940.47;;;6.18;100.00
70133;BME280;57495;49.922;7.966;2023-02-20T08:00:51;100939.47;;;6.21;100.00
70133;BME280;57495;49.922;7.966;2023-02-20T08:02:53;100941.44;;;6.17;100.00
70133;BME280;57495;49.922;7.966;2023-02-20T08:04:54;100935.66;;;6.25;100.00
70133;BME280;57495;49.922;7.966;2023-02-20T08:06:56;100938.78;;;6.17;100.00
70133;BME280;57495;49.922;7.966;2023-02-20T08:08:57;100925.50;;;6.17;100.00
70133;BME280;57495;49.922;7.966;2023-02-20T08:10:58;100922.47;;;6.23;100.00
70133;BME280;57495;49.922;7.966;2023-02-20T08:13:00;100918.88;;;6.24;100.00
70133;BME280;57495;49.922;7.966;2023-02-20T08:15:04;100924.47;;;6.34;100.00
70133;BME280;57495;49.922;7.966;2023-02-20T08:17:05;100917.88;;;6.55;100.00
70133;BME280;57495;49.922;7.966;2023-02-20T08:19:06;100913.00;;;6.62;100.00
70133;BME280;57495;49.922;7.966;2023-02-20T08:21:08;100911.31;;;6.61;100.00
70133;BME280;57495;49.922;7.966;2023-02-20T08:23:15;100910.84;;;6.69;100.00
70133;BME280;57495;49.922;7.966;2023-02-20T08:25:17;100909.88;;;6.70;100.00
70133;BME280;57495;49.922;7.966;2023-02-20T08:27:19;100908.84;;;6.72;100.00
70133;BME280;57495;49.922;7.966;2023-02-20T08:29:20;100906.19;;;6.72;100.00
70133;BME280;57495;49.922;7.966;2023-02-20T08:31:23;100901.63;;;6.74;100.00
70133;BME280;57495;49.922;7.966;2023-02-20T08:33:25;100906.84;;;6.76;100.00
70133;BME280;57495;49.922;7.966;2023-02-20T08:35:27;100901.44;;;6.77;100.00
70133;BME280;57495;49.922;7.966;2023-02-20T08:37:28;100896.56;;;6.84;100.00
70133;BME280;57495;49.922;7.966;2023-02-20T08:39:30;100896.78;;;6.81;100.00
70133;BME280;57495;49.922;7.966;2023-02-20T08:41:31;100902.94;;;6.82;100.00
70133;BME280;57495;49.922;7.966;2023-02-20T08:43:33;100898.38;;;6.84;100.00
70133;BME280;57495;49.922;7.966;2023-02-20T08:45:34;100894.00;;;6.83;100.00
70133;BME280;57495;49.922;7.966;2023-02-20T08:47:37;100897.81;;;6.78;100.00
70133;BME280;57495;49.922;7.966;2023-02-20T08:49:38;100896.78;;;6.81;100.00
70133;BME280;57495;49.922;7.966;2023-02-20T08:51:40;100890.41;;;6.84;100.00
70133;BME280;57495;49.922;7.966;2023-02-20T08:53:41;100883.34;;;6.97;100.00
70133;BME280;57495;49.922;7.966;2023-02-20T08:55:43;100886.75;;;7.13;100.00
70133;BME280;57495;49.922;7.966;2023-02-20T08:57:44;100887.47;;;7.30;100.00
70133;BME280;57495;49.922;7.966;2023-02-20T08:59:45;100878.25;;;7.48;100.00
70133;BME280;57495;49.922;7.966;2023-02-20T09:01:47;100878.97;;;7.65;100.00
70133;BME280;57495;49.922;7.966;2023-02-20T09:03:50;100878.75;;;7.81;99.29
70133;BME280;57495;49.922;7.966;2023-02-20T09:05:51;100875.38;;;7.91;99.50
70133;BME280;57495;49.922;7.966;2023-02-20T09:07:53;100873.38;;;8.08;99.17
70133;BME280;57495;49.922;7.966;2023-02-20T09:09:54;100876.16;;;8.19;98.98
70133;BME280;57495;49.922;7.966;2023-02-20T09:11:56;100878.06;;;8.17;96.59
70133;BME280;57495;49.922;7.966;2023-02-20T09:13:57;100875.19;;;8.33;96.68
70133;BME280;57495;49.922;7.966;2023-02-20T09:15:59;100881.03;;;8.38;95.72
70133;BME280;57495;49.922;7.966;2023-02-20T09:18:00;100882.13;;;8.61;96.11
70133;BME280;57495;49.922;7.966;2023-02-20T09:20:03;100879.25;;;8.64;95.25
70133;BME280;57495;49.922;7.966;2023-02-20T09:22:09;100875.44;;;8.56;93.44
70133;BME280;57495;49.922;7.966;2023-02-20T09:24:10;100868.59;;;8.64;93.04
70133;BME280;57495;49.922;7.966;2023-02-20T09:26:11;100861.16;;;8.81;92.30
70133;BME280;57495;49.922;7.966;2023-02-20T09:28:13;100869.28;;;8.92;93.32
70133;BME280;57495;49.922;7.966;2023-02-20T09:30:15;100869.00;;;9.08;92.41
70133;BME280;57495;49.922;7.966;2023-02-20T09:32:18;100865.44;;;9.20;90.68
70133;BME280;57495;49.922;7.966;2023-02-20T09:34:20;100877.09;;;9.06;90.59
70133;BME280;57495;49.922;7.966;2023-02-20T09:36:23;100865.88;;;9.38;90.73
70133;BME280;57495;49.922;7.966;2023-02-20T09:38:24;100870.00;;;9.31;88.58
70133;BME280;57495;49.922;7.966;2023-02-20T09:40:29;100859.81;;;9.36;88.21
70133;BME280;57495;49.922;7.966;2023-02-20T09:42:36;100861.56;;;9.48;88.40
70133;BME280;57495;49.922;7.966;2023-02-20T09:44:45;100859.44;;;9.65;87.91
70133;BME280;57495;49.922;7.966;2023-02-20T09:46:52;100854.84;;;9.67;88.01
70133;BME280;57495;49.922;7.966;2023-02-20T09:49:04;100852.72;;;9.83;86.54
70133;BME280;57495;49.922;7.966;2023-02-20T09:51:12;100855.63;;;9.92;86.19
70133;BME280;57495;49.922;7.966;2023-02-20T09:53:21;100861.63;;;10.18;86.19
70133;BME280;57495;49.922;7.966;2023-02-20T09:55:34;100854.22;;;10.21;84.27
70133;BME280;57495;49.922;7.966;2023-02-20T09:57:36;100852.81;;;10.40;85.40
70133;BME280;57495;49.922;7.966;2023-02-20T09:59:42;100860.38;;;10.69;83.22
70133;BME280;57495;49.922;7.966;2023-02-20T10:01:51;100852.47;;;10.44;82.93
70133;BME280;57495;49.922;7.966;2023-02-20T10:03:55;100852.09;;;10.60;82.36
70133;BME280;57495;49.922;7.966;2023-02-20T10:05:57;100855.84;;;10.69;83.08
70133;BME280;57495;49.922;7.966;2023-02-20T10:07:59;100840.38;;;10.84;81.04
70133;BME280;57495;49.922;7.966;2023-02-20T10:10:18;100850.81;;;11.10;77.73
70133;BME280;57495;49.922;7.966;2023-02-20T10:12:26;100840.50;;;11.37;76.08
70133;BME280;57495;49.922;7.966;2023-02-20T10:14:48;100843.41;;;11.46;73.52
70133;BME280;57495;49.922;7.966;2023-02-20T10:17:00;100846.13;;;11.23;73.42
70133;BME280;57495;49.922;7.966;2023-02-20T10:19:12;100848.03;;;11.97;75.67
70133;BME280;57495;49.922;7.966;2023-02-20T10:21:32;100840.75;;;12.30;71.22
70133;BME280;57495;49.922;7.966;2023-02-20T10:23:41;100849.41;;;12.43;70.50
70133;BME280;57495;49.922;7.966;2023-02-20T10:25:49;100843.78;;;11.94;69.78
70133;BME280;57495;49.922;7.966;2023-02-20T10:27:57;100837.84;;;11.91;69.49
70133;BME280;57495;49.922;7.966;2023-02-20T10:30:02;100840.56;;;12.01;69.20
70133;BME280;57495;49.922;7.966;2023-02-20T10:32:07;100849.91;;;12.06;68.12
70133;BME280;57495;49.922;7.966;2023-02-20T10:34:13;100843.75;;;12.77;66.93
70133;BME280;57495;49.922;7.966;2023-02-20T10:36:19;100836.84;;;12.84;64.98
70133;BME280;57495;49.922;7.966;2023-02-20T10:38:26;100843.06;;;12.44;67.29
70133;BME280;57495;49.922;7.966;2023-02-20T10:40:32;100844.13;;;12.32;66.97
70133;BME280;57495;49.922;7.966;2023-02-20T10:42:38;100836.91;;;12.53;66.52
70133;BME280;57495;49.922;7.966;2023-02-20T10:44:45;100836.44;;;12.48;65.92
70133;BME280;57495;49.922;7.966;2023-02-20T10:46:52;100832.25;;;12.65;67.06
70133;BME280;57495;49.922;7.966;2023-02-20T10:48:58;100843.22;;;12.83;64.00
70133;BME280;57495;49.922;7.966;2023-02-20T10:51:05;100836.88;;;12.23;65.70